Time;durP1;ratioP1;P1;durP2;ratioP2;P2;SDS_P1;SDS_P2;PMS_P1;PMS_P2;Temp;Humidity;BMP_temperature;BMP_pressure;BME280_temperature;BME280_humidity;BME280_pressure;Samples;Min_cycle;Max_cycle;Signal;HPM_P1;HPM_P2
2022/02/18 00:00:27;;;;;;;9.93;6.37;;;;;;;4.64;73.53;98026.79;1658167;86;21460;-75
2022/02/18 00:02:54;;;;;;;8.88;6.00;;;;;;;4.58;73.62;98034.70;1656891;85;21104;-74
2022/02/18 00:05:22;;;;;;;8.25;4.95;;;;;;;4.54;73.75;98037.75;1655979;85;21827;-75
2022/02/18 00:07:48;;;;;;;9.40;5.55;;;;;;;4.52;73.88;98038.35;1650339;85;21077;-75
2022/02/18 00:10:15;;;;;;;8.15;4.80;;;;;;;4.51;73.96;98045.86;1655900;86;21016;-75
2022/02/18 00:12:42;;;;;;;8.48;4.83;;;;;;;4.49;73.96;98039.47;1652703;85;21536;-75
2022/02/18 00:15:10;;;;;;;9.00;4.95;;;;;;;4.49;74.02;98042.56;1656006;85;21442;-75
2022/02/18 00:17:38;;;;;;;8.38;4.60;;;;;;;4.48;74.00;98041.74;1650481;87;22825;-75
2022/02/18 00:20:07;;;;;;;7.42;4.50;;;;;;;4.47;73.98;98042.71;1655968;85;20992;-75
2022/02/18 00:22:35;;;;;;;6.92;4.25;;;;;;;4.47;73.95;98036.17;1650388;87;20985;-75
2022/02/18 00:25:02;;;;;;;5.60;3.92;;;;;;;4.46;73.89;98033.22;1656126;86;21004;-75
2022/02/18 00:27:29;;;;;;;7.62;4.78;;;;;;;4.44;73.87;98036.47;1650437;85;21041;-75
2022/02/18 00:29:56;;;;;;;8.00;5.00;;;;;;;4.43;73.86;98030.05;1634908;86;22425;-75
2022/02/18 00:32:23;;;;;;;9.35;5.10;;;;;;;4.42;73.83;98025.78;1650398;87;20902;-75
2022/02/18 00:34:50;;;;;;;6.70;4.35;;;;;;;4.40;73.79;98023.80;1656111;86;21056;-75
2022/02/18 00:37:18;;;;;;;6.75;3.90;;;;;;;4.38;73.72;98024.43;1650455;87;20986;-75
2022/02/18 00:39:45;;;;;;;6.65;3.65;;;;;;;4.34;73.73;98031.70;1656096;85;20972;-76
2022/02/18 00:42:12;;;;;;;5.05;3.22;;;;;;;4.30;73.73;98032.48;1650509;87;21752;-76
2022/02/18 00:44:39;;;;;;;5.10;3.55;;;;;;;4.29;73.68;98037.37;1655845;85;21068;-75
2022/02/18 00:47:06;;;;;;;4.87;3.00;;;;;;;4.28;73.70;98040.13;1651339;85;21025;-76
2022/02/18 00:49:33;;;;;;;5.15;3.72;;;;;;;4.27;73.68;98035.86;1655950;85;21276;-76
2022/02/18 00:52:00;;;;;;;6.20;4.30;;;;;;;4.27;73.69;98032.77;1650410;87;21076;-75
2022/02/18 00:54:26;;;;;;;8.13;4.20;;;;;;;4.27;73.63;98031.95;1655832;86;21839;-75
2022/02/18 00:56:54;;;;;;;8.43;4.62;;;;;;;4.28;73.57;98028.36;1650343;87;21022;-74
2022/02/18 00:59:22;;;;;;;8.48;4.97;;;;;;;4.26;73.45;98020.67;1655904;86;21485;-75
2022/02/18 01:01:48;;;;;;;8.43;4.50;;;;;;;4.26;73.38;98019.84;1650395;87;21104;-75
2022/02/18 01:04:15;;;;;;;6.05;3.87;;;;;;;4.24;73.30;98020.44;1684591;83;20973;-74
2022/02/18 01:06:41;;;;;;;5.28;3.67;;;;;;;4.24;73.25;98023.05;1688670;84;21833;-75
2022/02/18 01:09:08;;;;;;;7.80;4.08;;;;;;;4.21;73.22;98023.34;1688714;85;21024;-74
2022/02/18 01:11:34;;;;;;;6.53;4.05;;;;;;;4.18;73.14;98028.86;1688773;83;20968;-75
2022/02/18 01:14:03;;;;;;;7.72;4.30;;;;;;;4.15;73.01;98027.81;1667297;85;21546;-75
2022/02/18 01:16:30;;;;;;;5.53;2.98;;;;;;;4.09;72.91;98032.30;1635536;86;21080;-75
2022/02/18 01:18:58;;;;;;;7.60;4.55;;;;;;;4.05;72.95;98026.98;1640428;86;21868;-75
2022/02/18 01:21:25;;;;;;;6.95;3.90;;;;;;;4.03;72.93;98032.36;1660348;85;20964;-75
2022/02/18 01:23:52;;;;;;;6.78;3.92;;;;;;;3.99;72.85;98034.43;1661039;86;21443;-75
2022/02/18 01:26:19;;;;;;;9.53;4.15;;;;;;;3.93;72.81;98037.58;1660917;86;21027;-76
2022/02/18 01:28:46;;;;;;;5.95;3.40;;;;;;;3.89;72.82;98039.31;1660936;86;21035;-75
2022/02/18 01:31:13;;;;;;;5.20;3.12;;;;;;;3.86;72.79;98049.55;1660916;86;21850;-75
2022/02/18 01:33:40;;;;;;;3.67;2.00;;;;;;;3.81;72.81;98054.34;1660927;86;21015;-75
2022/02/18 01:36:06;;;;;;;3.33;2.10;;;;;;;3.77;72.88;98060.81;1659439;86;20983;-76
2022/02/18 01:38:33;;;;;;;4.03;2.00;;;;;;;3.76;72.98;98067.45;1608567;87;21478;-75
2022/02/18 01:41:03;;;;;;;3.35;1.82;;;;;;;3.77;73.14;98069.95;1634037;87;20984;-76
2022/02/18 01:43:30;;;;;;;3.30;1.92;;;;;;;3.81;73.27;98075.23;1634018;86;21847;-76
2022/02/18 01:45:58;;;;;;;4.15;2.00;;;;;;;3.88;73.33;98082.88;1634010;86;21106;-75
2022/02/18 01:48:24;;;;;;;3.05;1.82;;;;;;;3.92;73.35;98088.16;1634117;86;21011;-76
2022/02/18 01:50:51;;;;;;;3.47;1.72;;;;;;;3.96;73.36;98092.66;1634169;87;21113;-76
2022/02/18 01:53:18;;;;;;;3.95;2.27;;;;;;;3.97;73.43;98096.91;1635032;86;21134;-75
2022/02/18 01:55:44;;;;;;;4.10;2.50;;;;;;;3.99;73.53;98108.87;1634125;86;21795;-75
2022/02/18 01:58:11;;;;;;;4.55;2.02;;;;;;;4.00;73.66;98117.53;1634049;87;21024;-75
2022/02/18 02:00:39;;;;;;;4.17;2.50;;;;;;;4.02;73.69;98125.56;1634045;87;21028;-75
2022/02/18 02:03:07;;;;;;;4.22;2.50;;;;;;;4.03;73.71;98125.91;1634106;86;20984;-74
2022/02/18 02:05:33;;;;;;;4.58;2.22;;;;;;;4.05;73.69;98132.30;1629284;87;20979;-74
2022/02/18 02:08:00;;;;;;;3.17;2.25;;;;;;;4.08;73.65;98144.28;1631241;87;21861;-74
2022/02/18 02:10:27;;;;;;;4.17;2.40;;;;;;;4.10;73.57;98134.52;1656863;85;21016;-74
2022/02/18 02:12:55;;;;;;;4.58;2.33;;;;;;;4.12;73.43;98137.33;1650327;85;21006;-75
2022/02/18 02:15:27;;;;;;;4.37;2.45;;;;;;;4.13;73.34;98140.28;1655072;85;21387;-75
2022/02/18 02:18:01;;;;;;;3.83;2.45;;;;;;;4.13;73.29;98139.46;1655997;86;21108;-75
2022/02/18 02:20:28;;;;;;;4.58;2.65;;;;;;;4.12;73.19;98148.27;1656190;86;22188;-75
2022/02/18 02:22:55;;;;;;;4.37;2.58;;;;;;;4.11;73.17;98146.62;1660920;85;21024;-74
2022/02/18 02:25:21;;;;;;;4.53;2.65;;;;;;;4.11;73.14;98162.29;1668132;85;21020;-75
2022/02/18 02:27:48;;;;;;;3.85;2.42;;;;;;;4.09;73.12;98157.69;1674005;83;21051;-75
2022/02/18 02:30:15;;;;;;;3.55;2.40;;;;;;;4.08;73.15;98166.01;1656020;85;21009;-75
2022/02/18 02:32:41;;;;;;;4.03;2.47;;;;;;;4.07;73.10;98170.89;1650543;87;21807;-75
2022/02/18 02:35:08;;;;;;;3.65;2.02;;;;;;;4.08;73.14;98175.15;1655934;85;21047;-74
2022/02/18 02:37:35;;;;;;;3.80;2.30;;;;;;;4.08;73.12;98176.45;1656068;86;21009;-74
2022/02/18 02:40:06;;;;;;;3.08;1.80;;;;;;;4.11;73.14;98184.50;1650316;86;20998;-74
2022/02/18 02:42:36;;;;;;;3.58;2.10;;;;;;;4.11;73.08;98194.95;1655687;86;21431;-74
2022/02/18 02:45:05;;;;;;;3.75;2.20;;;;;;;4.11;73.00;98197.56;1651045;85;22554;-74
2022/02/18 02:47:33;;;;;;;3.87;2.17;;;;;;;4.10;72.95;98202.44;1656007;86;20976;-74
2022/02/18 02:50:13;;;;;;;3.40;2.30;;;;;;;4.08;72.94;98200.45;1623438;88;21046;-75
2022/02/18 02:52:39;;;;;;;4.03;2.10;;;;;;;4.05;72.97;98209.84;1629448;88;21217;-75
2022/02/18 02:55:10;;;;;;;3.45;1.90;;;;;;;4.02;72.96;98214.38;1650390;85;21113;-75
2022/02/18 02:57:38;;;;;;;2.83;1.90;;;;;;;4.01;73.01;98212.73;1655987;85;21865;-75
2022/02/18 03:00:07;;;;;;;4.80;2.00;;;;;;;4.00;73.00;98216.30;1650485;87;21006;-75
2022/02/18 03:02:35;;;;;;;2.70;1.55;;;;;;;4.00;73.02;98223.31;1673665;83;20952;-74
2022/02/18 03:05:03;;;;;;;2.72;1.67;;;;;;;4.00;73.05;98221.52;1686636;83;21004;-75
2022/02/18 03:07:30;;;;;;;2.98;1.72;;;;;;;4.02;73.07;98224.82;1688808;83;21016;-75
2022/02/18 03:10:04;;;;;;;2.67;1.75;;;;;;;4.03;73.08;98226.47;1688217;83;21929;-75
2022/02/18 03:12:32;;;;;;;2.90;1.80;;;;;;;4.05;73.12;98224.20;1684611;83;21083;-76
2022/02/18 03:15:00;;;;;;;3.25;2.05;;;;;;;4.07;73.14;98221.83;1634261;87;21040;-76
2022/02/18 03:17:29;;;;;;;3.42;2.05;;;;;;;4.08;73.16;98226.09;1633945;86;21590;-75
2022/02/18 03:19:59;;;;;;;6.00;2.37;;;;;;;4.10;73.14;98229.87;1657117;86;21115;-75
2022/02/18 03:22:27;;;;;;;3.77;2.42;;;;;;;4.11;73.16;98233.66;1659264;85;21861;-76
2022/02/18 03:24:54;;;;;;;5.12;3.02;;;;;;;4.12;73.15;98239.70;1633995;86;20964;-75
2022/02/18 03:27:21;;;;;;;4.97;3.00;;;;;;;4.12;73.14;98241.00;1634047;86;21019;-75
2022/02/18 03:29:49;;;;;;;5.50;3.02;;;;;;;4.11;73.16;98237.57;1655374;85;21039;-75
2022/02/18 03:32:17;;;;;;;5.30;2.60;;;;;;;4.11;73.17;98242.80;1664845;85;21003;-75
2022/02/18 03:34:43;;;;;;;6.22;3.00;;;;;;;4.14;73.21;98249.05;1632802;88;21804;-74
2022/02/18 03:37:10;;;;;;;5.03;3.55;;;;;;;4.16;73.25;98251.08;1680081;85;21021;-74
2022/02/18 03:39:36;;;;;;;5.22;3.35;;;;;;;4.20;73.31;98261.59;1682585;85;21010;-74
2022/02/18 03:42:04;;;;;;;4.87;3.45;;;;;;;4.22;73.40;98267.98;1682359;84;21097;-74
2022/02/18 03:44:35;;;;;;;6.20;3.52;;;;;;;4.24;73.48;98271.28;1682270;85;20998;-75
2022/02/18 03:47:03;;;;;;;5.55;3.35;;;;;;;4.28;73.47;98274.82;1682325;84;21836;-75
2022/02/18 03:49:32;;;;;;;4.67;3.27;;;;;;;4.31;73.48;98275.03;1682271;84;21073;-75
2022/02/18 03:52:00;;;;;;;5.87;3.52;;;;;;;4.34;73.55;98277.84;1682172;84;21456;-76
2022/02/18 03:54:26;;;;;;;5.75;2.80;;;;;;;4.38;73.54;98277.46;1604360;87;20980;-76
2022/02/18 03:56:55;;;;;;;5.03;2.40;;;;;;;4.43;73.56;98283.09;1660973;85;21012;-75
2022/02/18 03:59:22;;;;;;;5.90;2.90;;;;;;;4.48;73.54;98287.45;1660983;86;21475;-75
2022/02/18 04:01:50;;;;;;;4.28;2.45;;;;;;;4.55;73.46;98291.67;1660853;85;21015;-76
2022/02/18 04:04:18;;;;;;;5.05;2.30;;;;;;;4.59;73.43;98289.95;1660165;83;21152;-74
2022/02/18 04:06:48;;;;;;;3.85;2.08;;;;;;;4.66;73.35;98289.42;1650416;85;21487;-74
2022/02/18 04:09:22;;;;;;;4.40;2.37;;;;;;;4.71;73.22;98291.13;1635714;86;21563;-75
2022/02/18 04:11:54;;;;;;;4.12;2.20;;;;;;;4.75;73.14;98299.06;1634582;87;21846;-75
2022/02/18 04:14:20;;;;;;;5.12;2.45;;;;;;;4.80;72.99;98308.63;1655993;85;21012;-75
2022/02/18 04:16:49;;;;;;;4.12;2.60;;;;;;;4.86;72.84;98308.09;1649205;87;21005;-75
2022/02/18 04:19:18;;;;;;;4.62;2.52;;;;;;;4.90;72.74;98329.08;1655850;85;21071;-74
2022/02/18 04:21:46;;;;;;;3.42;2.30;;;;;;;4.93;72.57;98322.29;1650162;86;21448;-74
2022/02/18 04:24:23;;;;;;;2.95;1.80;;;;;;;4.96;72.46;98323.31;1655127;86;21860;-74
2022/02/18 04:26:50;;;;;;;4.05;1.90;;;;;;;4.99;72.31;98332.67;1659413;85;21022;-75
2022/02/18 04:29:16;;;;;;;4.10;2.02;;;;;;;5.01;72.15;98339.41;1683562;85;21446;-75
2022/02/18 04:31:43;;;;;;;4.87;1.87;;;;;;;5.03;72.07;98342.75;1677883;85;20979;-76
2022/02/18 04:34:09;;;;;;;2.80;1.60;;;;;;;5.04;71.72;98347.50;1683672;83;21502;-76
2022/02/18 04:36:35;;;;;;;2.80;1.60;;;;;;;5.05;71.63;98360.44;1660533;85;21806;-74
2022/02/18 04:39:02;;;;;;;2.20;1.40;;;;;;;5.06;71.37;98370.42;1683672;83;21004;-75
2022/02/18 04:41:29;;;;;;;2.77;1.57;;;;;;;5.09;71.32;98367.03;1677810;84;21559;-75
2022/02/18 04:43:57;;;;;;;7.83;5.55;;;;;;;5.10;71.27;98376.53;1661104;85;20996;-75
2022/02/18 04:46:24;;;;;;;3.55;2.00;;;;;;;5.11;71.44;98379.50;1650472;87;21037;-75
2022/02/18 04:48:52;;;;;;;11.20;6.58;;;;;;;5.11;71.61;98389.97;1655986;85;21878;-74
2022/02/18 04:51:19;;;;;;;48.90;30.17;;;;;;;5.05;71.76;98387.91;1650318;87;21080;-75
2022/02/18 04:53:45;;;;;;;12.98;8.65;;;;;;;5.04;71.93;98391.49;1655894;85;20976;-74
2022/02/18 04:56:12;;;;;;;3.05;1.67;;;;;;;5.02;72.13;98397.80;1650583;87;21046;-75
2022/02/18 04:58:38;;;;;;;8.43;6.22;;;;;;;4.98;72.17;98410.81;1656016;85;21538;-75
2022/02/18 05:01:06;;;;;;;7.40;4.00;;;;;;;4.94;72.45;98415.50;1653608;86;22496;-75
2022/02/18 05:03:33;;;;;;;3.62;2.70;;;;;;;4.92;72.55;98421.32;1655749;86;20964;-74
2022/02/18 05:06:04;;;;;;;2.98;1.92;;;;;;;4.92;72.69;98429.66;1655945;86;21017;-75
2022/02/18 05:08:31;;;;;;;1.92;1.40;;;;;;;4.90;72.81;98436.33;1634486;86;21033;-75
2022/02/18 05:10:59;;;;;;;3.15;1.35;;;;;;;4.87;72.91;98443.14;1658328;86;21479;-75
2022/02/18 05:13:26;;;;;;;2.40;1.70;;;;;;;4.83;73.22;98448.31;1658230;85;21834;-75
2022/02/18 05:15:53;;;;;;;2.98;1.60;;;;;;;4.80;73.25;98454.61;1658150;86;21318;-75
2022/02/18 05:18:19;;;;;;;2.55;1.60;;;;;;;4.79;73.34;98457.36;1673262;85;21061;-75
2022/02/18 05:20:47;;;;;;;30.12;23.15;;;;;;;4.77;73.42;98457.98;1686333;85;20989;-74
2022/02/18 05:23:15;;;;;;;13.50;9.58;;;;;;;4.76;73.49;98470.72;1686166;85;21091;-75
2022/02/18 05:25:42;;;;;;;12.37;9.43;;;;;;;4.73;73.52;98478.34;1686158;85;21823;-75
2022/02/18 05:28:10;;;;;;;7.85;5.10;;;;;;;4.69;73.59;98490.49;1686144;85;21061;-74
2022/02/18 05:30:37;;;;;;;11.38;7.78;;;;;;;4.64;73.41;98487.45;1660537;85;20997;-75
2022/02/18 05:33:03;;;;;;;25.90;17.60;;;;;;;4.61;73.42;98498.98;1686069;85;21460;-75
2022/02/18 05:35:29;;;;;;;13.10;9.40;;;;;;;4.61;73.46;98505.52;1685067;85;21540;-75
2022/02/18 05:37:56;;;;;;;6.40;4.33;;;;;;;4.61;73.46;98514.67;1686167;85;21421;-75
2022/02/18 05:40:23;;;;;;;4.30;2.10;;;;;;;4.56;73.37;98516.38;1685782;85;21008;-75
2022/02/18 05:42:49;;;;;;;10.90;6.78;;;;;;;4.52;73.35;98524.12;1669153;85;21021;-75
2022/02/18 05:45:17;;;;;;;17.35;12.15;;;;;;;4.53;73.47;98524.94;1686138;85;21852;-75
2022/02/18 05:47:47;;;;;;;16.62;12.20;;;;;;;4.51;73.57;98530.30;1686127;85;21033;-75
2022/02/18 05:50:13;;;;;;;10.75;6.40;;;;;;;4.45;73.62;98529.53;1686120;85;21808;-76
2022/02/18 05:52:41;;;;;;;7.70;5.47;;;;;;;4.40;73.83;98540.83;1685004;85;21015;-76
2022/02/18 05:55:09;;;;;;;7.33;5.72;;;;;;;4.36;74.03;98539.45;1686107;85;20973;-75
2022/02/18 05:57:37;;;;;;;4.62;3.75;;;;;;;4.33;74.23;98551.44;1686190;84;20969;-75
2022/02/18 06:00:09;;;;;;;7.03;5.55;;;;;;;4.30;74.39;98554.31;1686120;85;20985;-76
2022/02/18 06:02:36;;;;;;;13.67;9.77;;;;;;;4.29;74.53;98550.88;1685907;85;21836;-75
2022/02/18 06:05:03;;;;;;;12.60;8.68;;;;;;;4.30;74.79;98566.91;1689159;84;21598;-76
2022/02/18 06:07:31;;;;;;;15.68;11.57;;;;;;;4.27;74.92;98580.23;1703178;84;21603;-75
2022/02/18 06:09:59;;;;;;;7.83;5.72;;;;;;;4.27;75.03;98581.54;1702118;84;21880;-75
2022/02/18 06:12:26;;;;;;;4.30;2.80;;;;;;;4.30;75.06;98589.59;1700008;84;20964;-75
2022/02/18 06:14:53;;;;;;;2.95;2.20;;;;;;;4.30;75.18;98593.52;1674733;85;22663;-75
2022/02/18 06:17:20;;;;;;;7.15;5.83;;;;;;;4.31;75.20;98600.40;1674673;85;20944;-75
2022/02/18 06:19:47;;;;;;;5.05;4.12;;;;;;;4.31;75.23;98608.23;1674786;84;21439;-75
2022/02/18 06:22:14;;;;;;;3.70;2.85;;;;;;;4.31;75.18;98609.55;1674739;85;21448;-75
2022/02/18 06:24:42;;;;;;;4.25;3.22;;;;;;;4.33;75.04;98617.26;1674856;85;21024;-75
2022/02/18 06:27:09;;;;;;;12.70;10.15;;;;;;;4.31;74.84;98611.69;1652573;85;22264;-75
2022/02/18 06:29:36;;;;;;;4.62;3.20;;;;;;;4.35;74.89;98613.59;1674693;85;20981;-75
2022/02/18 06:32:04;;;;;;;7.00;5.03;;;;;;;4.38;74.63;98617.25;1674821;85;21064;-75
2022/02/18 06:34:32;;;;;;;9.83;6.08;;;;;;;4.43;74.58;98619.47;1674826;85;21044;-75
2022/02/18 06:36:58;;;;;;;4.90;3.70;;;;;;;4.46;74.42;98621.37;1674825;85;21076;-75
2022/02/18 06:39:24;;;;;;;2.67;1.92;;;;;;;4.50;74.09;98620.16;1675090;84;21866;-75
2022/02/18 06:41:51;;;;;;;2.70;1.70;;;;;;;4.54;73.98;98628.59;1674707;84;21028;-75
2022/02/18 06:44:18;;;;;;;2.80;1.90;;;;;;;4.57;73.46;98627.02;1675986;84;21028;-75
2022/02/18 06:46:44;;;;;;;2.75;1.30;;;;;;;4.57;73.29;98637.48;1676750;83;21032;-75
2022/02/18 06:49:10;;;;;;;1.98;1.30;;;;;;;4.58;73.14;98633.91;1690956;84;21076;-75
2022/02/18 06:51:37;;;;;;;2.22;1.30;;;;;;;4.60;72.80;98639.35;1674785;85;21819;-75
2022/02/18 06:54:04;;;;;;;1.98;1.35;;;;;;;4.63;72.71;98649.20;1674966;85;21379;-75
2022/02/18 06:56:32;;;;;;;2.35;1.20;;;;;;;4.66;72.71;98646.36;1674731;85;21494;-75
2022/02/18 06:58:59;;;;;;;2.22;1.25;;;;;;;4.70;72.57;98651.67;1674734;84;21067;-75
2022/02/18 07:01:25;;;;;;;2.00;1.20;;;;;;;4.72;72.33;98648.44;1702320;84;21013;-75
2022/02/18 07:03:52;;;;;;;1.47;1.00;;;;;;;4.76;72.15;98656.41;1702970;84;21816;-74
2022/02/18 07:06:20;;;;;;;2.25;1.60;;;;;;;4.79;71.68;98660.06;1693013;84;21537;-75
2022/02/18 07:08:46;;;;;;;2.40;1.37;;;;;;;4.74;70.65;98657.84;1686009;85;21396;-75
2022/02/18 07:11:13;;;;;;;1.55;1.02;;;;;;;4.72;69.69;98656.29;1686030;85;21010;-75
2022/02/18 07:13:41;;;;;;;11.15;8.25;;;;;;;4.68;69.26;98671.89;1668774;85;21702;-75
2022/02/18 07:16:07;;;;;;;17.05;13.00;;;;;;;4.67;68.79;98668.93;1659215;85;21472;-75
2022/02/18 07:18:34;;;;;;;8.00;5.10;;;;;;;4.67;68.77;98668.93;1658282;86;21497;-75
2022/02/18 07:21:01;;;;;;;5.67;4.05;;;;;;;4.68;68.49;98675.81;1658338;86;21024;-75
2022/02/18 07:23:27;;;;;;;14.38;10.20;;;;;;;4.67;68.23;98680.22;1658297;86;21478;-75
2022/02/18 07:25:54;;;;;;;10.43;7.10;;;;;;;4.70;68.44;98683.88;1658335;85;20974;-75
2022/02/18 07:28:21;;;;;;;6.20;3.92;;;;;;;4.71;68.20;98682.92;1658601;86;22418;-76
2022/02/18 07:30:47;;;;;;;5.10;3.17;;;;;;;4.74;68.15;98688.41;1658334;86;20989;-76
2022/02/18 07:33:14;;;;;;;5.87;4.20;;;;;;;4.75;68.09;98693.50;1659401;85;20981;-75
2022/02/18 07:35:40;;;;;;;4.90;2.90;;;;;;;4.75;68.06;98690.05;1633548;86;21037;-75
2022/02/18 07:38:07;;;;;;;3.05;1.42;;;;;;;4.77;68.13;98702.05;1658330;86;21021;-74
2022/02/18 07:40:33;;;;;;;3.20;1.60;;;;;;;4.79;68.11;98705.36;1658339;86;22185;-75
2022/02/18 07:43:00;;;;;;;2.90;2.30;;;;;;;4.79;67.90;98714.52;1658512;86;21030;-75
2022/02/18 07:45:26;;;;;;;4.87;3.08;;;;;;;4.75;67.79;98707.89;1658358;86;21029;-75
2022/02/18 07:47:55;;;;;;;2.75;1.40;;;;;;;4.73;67.86;98710.25;1658309;86;21090;-75
2022/02/18 07:50:22;;;;;;;1.55;1.00;;;;;;;4.75;67.88;98714.91;1659183;85;21037;-75
2022/02/18 07:52:49;;;;;;;3.62;1.00;;;;;;;4.75;67.85;98713.59;1659903;85;23068;-75
2022/02/18 07:55:16;;;;;;;6.37;4.95;;;;;;;4.76;67.85;98725.72;1654283;86;21377;-76
2022/02/18 07:57:43;;;;;;;2.05;1.40;;;;;;;4.71;67.57;98720.84;1658282;86;21009;-76
2022/02/18 08:00:10;;;;;;;5.50;4.37;;;;;;;4.73;67.62;98728.56;1658304;86;21041;-76
2022/02/18 08:02:40;;;;;;;4.22;1.70;;;;;;;4.78;67.89;98734.26;1658859;86;21572;-76
2022/02/18 08:05:07;;;;;;;2.72;1.62;;;;;;;4.87;67.42;98734.81;1658409;86;22803;-76
2022/02/18 08:07:34;;;;;;;1.40;0.90;;;;;;;4.94;66.96;98730.75;1680328;82;21029;-76
2022/02/18 08:10:06;;;;;;;1.85;0.90;;;;;;;5.03;66.39;98747.00;1703058;84;21016;-76
2022/02/18 08:12:34;;;;;;;3.52;1.20;;;;;;;5.08;65.99;98741.38;1698673;84;21040;-76
2022/02/18 08:15:01;;;;;;;1.00;0.78;;;;;;;5.11;65.61;98748.48;1674753;85;21032;-76
2022/02/18 08:17:38;;;;;;;2.98;0.90;;;;;;;5.16;65.16;98738.47;1674708;85;21853;-76
2022/02/18 08:20:06;;;;;;;1.32;0.70;;;;;;;5.25;64.78;98756.52;1674660;84;21388;-76
2022/02/18 08:22:33;;;;;;;1.87;1.12;;;;;;;5.32;63.60;98748.51;1674698;85;21104;-76
2022/02/18 08:25:00;;;;;;;1.52;0.80;;;;;;;5.40;63.58;98746.53;1675633;84;21024;-76
2022/02/18 08:27:28;;;;;;;0.90;0.60;;;;;;;5.50;63.22;98750.52;1674729;85;21020;-76
2022/02/18 08:29:55;;;;;;;1.82;0.50;;;;;;;5.61;62.30;98763.56;1649436;85;21856;-76
2022/02/18 08:32:22;;;;;;;1.05;0.55;;;;;;;5.66;61.28;98762.67;1674645;85;21005;-76
2022/02/18 08:34:48;;;;;;;1.65;0.60;;;;;;;5.66;60.55;98760.88;1674654;85;20984;-76
2022/02/18 08:37:15;;;;;;;1.70;0.80;;;;;;;5.64;59.50;98771.97;1674791;85;21268;-76
2022/02/18 08:39:41;;;;;;;3.08;0.75;;;;;;;5.60;59.85;98786.30;1674766;85;21478;-76
2022/02/18 08:42:08;;;;;;;1.40;0.90;;;;;;;5.57;58.71;98771.30;1675598;84;21859;-76
2022/02/18 08:44:35;;;;;;;1.52;0.70;;;;;;;5.54;59.52;98784.19;1674630;85;21432;-76
2022/02/18 08:47:03;;;;;;;1.52;0.78;;;;;;;5.57;59.88;98787.02;1674688;85;21024;-76
2022/02/18 08:49:31;;;;;;;1.90;0.90;;;;;;;5.63;59.64;98787.83;1674560;85;21718;-76
2022/02/18 08:51:57;;;;;;;0.95;0.60;;;;;;;5.71;59.00;98794.08;1674806;84;21395;-76
2022/02/18 08:54:23;;;;;;;2.58;0.65;;;;;;;5.79;58.86;98797.81;1680988;84;22801;-76
2022/02/18 08:56:50;;;;;;;1.50;0.60;;;;;;;5.77;58.07;98784.85;1702868;84;20940;-76
2022/02/18 08:59:17;;;;;;;2.75;0.85;;;;;;;5.77;58.13;98801.88;1693492;84;20976;-75
2022/02/18 09:01:43;;;;;;;1.35;0.80;;;;;;;5.81;58.59;98798.55;1686586;84;21032;-75
2022/02/18 09:04:12;;;;;;;1.10;0.60;;;;;;;5.90;58.81;98801.69;1674899;85;21108;-74
2022/02/18 09:06:38;;;;;;;1.67;0.75;;;;;;;5.98;58.97;98804.49;1637343;86;21920;-75
2022/02/18 09:09:04;;;;;;;0.80;0.65;;;;;;;6.05;58.59;98798.26;1646891;87;20986;-75
2022/02/18 09:11:31;;;;;;;2.90;1.80;;;;;;;6.09;58.41;98809.67;1646955;87;21042;-75
2022/02/18 09:13:57;;;;;;;8.23;6.90;;;;;;;6.15;57.81;98803.06;1646735;87;21485;-75
2022/02/18 09:16:24;;;;;;;3.33;2.00;;;;;;;6.21;58.42;98812.55;1647642;85;21476;-75
2022/02/18 09:18:57;;;;;;;2.98;1.20;;;;;;;6.26;58.27;98820.83;1646995;87;21857;-75
2022/02/18 09:21:25;;;;;;;1.87;0.80;;;;;;;6.28;58.27;98817.62;1646850;87;21018;-75
2022/02/18 09:23:52;;;;;;;1.55;0.80;;;;;;;6.22;57.50;98831.24;1646883;87;21504;-74
2022/02/18 09:26:20;;;;;;;1.45;0.72;;;;;;;6.17;57.32;98824.23;1646815;87;21568;-75
2022/02/18 09:28:46;;;;;;;1.50;0.82;;;;;;;6.09;57.23;98831.12;1646823;87;20991;-76
2022/02/18 09:31:13;;;;;;;0.80;0.60;;;;;;;6.06;57.48;98833.98;1647048;87;22546;-75
2022/02/18 09:33:39;;;;;;;0.85;0.55;;;;;;;6.13;57.66;98837.27;1636826;87;21061;-75
2022/02/18 09:36:08;;;;;;;2.25;0.80;;;;;;;6.21;57.08;98844.00;1646817;86;20982;-75
2022/02/18 09:38:36;;;;;;;1.87;0.68;;;;;;;6.19;56.43;98854.28;1646818;87;20994;-76
2022/02/18 09:41:06;;;;;;;1.30;0.70;;;;;;;6.15;56.46;98855.48;1647087;87;21135;-76
2022/02/18 09:43:35;;;;;;;2.95;0.70;;;;;;;6.24;57.02;98854.22;1646881;87;21851;-75
2022/02/18 09:46:03;;;;;;;1.22;0.60;;;;;;;6.42;57.04;98847.88;1647016;87;20970;-76
2022/02/18 09:48:30;;;;;;;1.77;0.82;;;;;;;6.62;55.96;98844.83;1646883;87;21030;-75
2022/02/18 09:50:56;;;;;;;1.62;0.80;;;;;;;6.80;55.86;98841.08;1647971;85;20996;-75
2022/02/18 09:53:25;;;;;;;2.80;0.70;;;;;;;6.99;54.89;98850.30;1646897;87;21017;-75
2022/02/18 09:55:51;;;;;;;2.17;0.82;;;;;;;7.16;53.40;98852.25;1647011;85;22290;-75
2022/02/18 09:58:22;;;;;;;2.42;1.50;;;;;;;7.32;53.46;98849.55;1646776;87;21041;-76
2022/02/18 10:00:46;;;;;;;2.62;0.80;;;;;;;7.55;53.18;98844.37;1646896;87;20973;-75
2022/02/18 10:03:13;;;;;;;1.40;0.70;;;;;;;7.75;52.36;98854.36;1646766;87;21034;-76
2022/02/18 10:05:39;;;;;;;3.42;0.95;;;;;;;7.81;52.42;98850.33;1656370;85;21072;-75
2022/02/18 10:08:18;;;;;;;2.17;0.60;;;;;;;7.73;51.36;98859.77;1673871;85;21819;-75
2022/02/18 10:11:04;;;;;;;2.27;0.70;;;;;;;7.65;51.63;98859.63;1683673;83;21083;-75
2022/02/18 10:13:43;;;;;;;1.67;0.78;;;;;;;7.63;52.24;98855.01;1678084;85;21006;-75
2022/02/18 10:16:21;;;;;;;1.45;0.70;;;;;;;7.65;51.76;98859.63;1683626;85;21574;-75
2022/02/18 10:18:57;;;;;;;3.58;1.12;;;;;;;7.68;51.45;98856.72;1678024;85;20984;-75
2022/02/18 10:21:27;;;;;;;1.67;0.90;;;;;;;7.68;52.05;98865.91;1683700;85;21848;-75
2022/02/18 10:24:16;;;;;;;2.62;1.00;;;;;;;7.72;52.08;98863.37;1667507;85;20970;-75
2022/02/18 10:26:46;;;;;;;2.72;0.80;;;;;;;7.80;52.25;98867.06;1655905;85;21036;-75
2022/02/18 10:29:20;;;;;;;1.95;0.80;;;;;;;7.87;51.30;98878.20;1650264;86;21033;-75
2022/02/18 10:32:07;;;;;;;2.72;1.00;;;;;;;7.82;51.19;98877.81;1636864;86;21092;-75
2022/02/18 10:34:57;;;;;;;1.27;0.80;;;;;;;7.79;51.21;98885.12;1650884;85;22818;-75
2022/02/18 10:37:25;;;;;;;4.97;0.68;;;;;;;7.69;51.22;98884.65;1655955;86;21051;-75
2022/02/18 10:40:10;;;;;;;1.30;0.70;;;;;;;7.65;51.52;98888.54;1650703;85;21017;-75
2022/02/18 10:42:38;;;;;;;3.27;0.70;;;;;;;7.63;50.82;98887.86;1656085;86;20972;-76
2022/02/18 10:45:12;;;;;;;1.55;0.70;;;;;;;7.58;50.70;98887.91;1631476;87;20998;-75
2022/02/18 10:47:39;;;;;;;3.27;0.90;;;;;;;7.58;51.50;98894.00;1656047;86;21778;-75
2022/02/18 10:50:22;;;;;;;1.77;0.90;;;;;;;7.70;51.65;98901.25;1650719;87;21014;-75
2022/02/18 10:53:15;;;;;;;2.30;0.60;;;;;;;7.83;51.75;98899.66;1656038;86;20996;-75
2022/02/18 10:56:02;;;;;;;2.05;0.88;;;;;;;8.01;50.90;98901.92;1650523;87;21074;-75
2022/02/18 10:58:38;;;;;;;2.33;0.85;;;;;;;8.20;50.55;98909.77;1656973;85;20952;-75
2022/02/18 11:01:18;;;;;;;2.25;0.82;;;;;;;8.43;49.57;98906.33;1656538;85;21862;-75
2022/02/18 11:04:01;;;;;;;1.95;0.90;;;;;;;8.75;49.80;98909.86;1655910;85;21277;-75
2022/02/18 11:06:34;;;;;;;5.20;1.47;;;;;;;9.04;49.35;98899.16;1650534;86;29248;-75
2022/02/18 11:09:07;;;;;;;2.25;0.90;;;;;;;9.19;47.29;98915.30;1655938;85;21028;-75
2022/02/18 11:11:45;;;;;;;2.00;0.77;;;;;;;9.08;47.31;98929.52;1657073;85;20965;-74
2022/02/18 11:14:17;;;;;;;4.12;0.90;;;;;;;8.88;47.74;98933.23;1659347;85;21896;-75
2022/02/18 11:17:07;;;;;;;2.60;0.90;;;;;;;8.74;47.71;98937.16;1685111;83;21010;-75
2022/02/18 11:19:35;;;;;;;1.70;0.90;;;;;;;8.54;47.87;98940.34;1711018;84;20997;-75
2022/02/18 11:22:03;;;;;;;1.65;0.82;;;;;;;8.21;48.05;98941.67;1691135;84;21536;-75
2022/02/18 11:24:30;;;;;;;2.00;0.90;;;;;;;7.99;49.07;98940.65;1711375;84;21005;-75
2022/02/18 11:26:59;;;;;;;1.30;0.80;;;;;;;7.96;49.70;98940.94;1711130;82;22520;-75
2022/02/18 11:29:25;;;;;;;1.82;0.90;;;;;;;7.98;49.82;98945.08;1710750;83;21002;-75
2022/02/18 11:31:58;;;;;;;3.05;0.88;;;;;;;7.92;49.25;98948.29;1700407;84;21053;-75
2022/02/18 11:35:00;;;;;;;2.85;1.10;;;;;;;7.74;49.60;98945.52;1682522;85;21433;-75
2022/02/18 11:37:50;;;;;;;5.55;1.00;;;;;;;7.74;49.60;98945.52;1681870;85;20994;-75
2022/02/18 11:40:34;;;;;;;5.62;1.00;;;;;;;7.68;50.00;98951.32;1681480;84;22422;-74
2022/02/18 11:43:15;;;;;;;3.35;1.27;;;;;;;7.64;50.68;98953.06;1680981;85;21492;-74
2022/02/18 11:45:42;;;;;;;4.22;1.50;;;;;;;7.56;50.81;98958.17;1675746;84;21013;-76
2022/02/18 11:48:45;;;;;;;4.75;1.00;;;;;;;7.52;51.54;98965.48;1662927;84;21089;-76